Time;durP1;ratioP1;P1;durP2;ratioP2;P2;SDS_P1;SDS_P2;PMS_P1;PMS_P2;Temp;Humidity;BMP_temperature;BMP_pressure;BME280_temperature;BME280_humidity;BME280_pressure;Samples;Min_cycle;Max_cycle;Signal;HPM_P1;HPM_P2
2023/12/08 00:02:15;;;;;;;14.35;6.53;;;2.60;99.90;;;;;;5071198;28;20036;-89
2023/12/08 00:04:40;;;;;;;14.88;7.30;;;2.60;99.90;;;;;;5052540;28;20044;-89
2023/12/08 00:07:06;;;;;;;13.70;5.93;;;2.60;99.90;;;;;;5039751;28;20094;-89
2023/12/08 00:09:31;;;;;;;16.27;7.90;;;2.60;99.90;;;;;;5058029;28;20037;-89
2023/12/08 00:11:57;;;;;;;16.73;8.07;;;2.60;99.90;;;;;;5056615;28;20484;-89
2023/12/08 00:14:23;;;;;;;16.08;8.00;;;2.60;99.90;;;;;;5039682;28;20029;-89
2023/12/08 00:16:49;;;;;;;15.70;7.43;;;2.60;99.90;;;;;;5041529;28;20064;-89
2023/12/08 00:19:14;;;;;;;18.65;7.93;;;2.60;99.90;;;;;;5055644;28;20514;-89
2023/12/08 00:21:40;;;;;;;12.93;6.43;;;2.60;99.90;;;;;;5058258;28;20032;-89
2023/12/08 00:24:05;;;;;;;13.93;7.53;;;2.60;99.90;;;;;;5038937;28;20111;-89
2023/12/08 00:26:31;;;;;;;15.77;8.15;;;2.60;99.90;;;;;;5056210;28;20029;-89
2023/12/08 00:28:57;;;;;;;16.30;7.43;;;2.60;99.90;;;;;;5069986;28;20093;-89
2023/12/08 00:31:23;;;;;;;16.45;7.20;;;2.60;99.90;;;;;;5053772;28;20477;-89
2023/12/08 00:33:48;;;;;;;13.85;7.05;;;2.60;99.90;;;;;;5053756;28;20091;-89
2023/12/08 00:36:18;;;;;;;14.63;7.00;;;2.60;99.90;;;;;;5054160;28;20551;-89
2023/12/08 00:38:44;;;;;;;12.65;6.05;;;2.60;99.90;;;;;;5053471;28;20045;-90
2023/12/08 00:41:10;;;;;;;12.38;6.70;;;2.60;99.90;;;;;;5070151;28;20123;-89
2023/12/08 00:43:36;;;;;;;13.98;6.97;;;2.60;99.90;;;;;;5053325;28;20125;-89
2023/12/08 00:46:02;;;;;;;12.57;5.78;;;2.60;99.90;;;;;;5053609;28;20040;-89
2023/12/08 00:48:27;;;;;;;12.95;6.18;;;2.60;99.90;;;;;;5069824;28;20043;-89
2023/12/08 00:50:53;;;;;;;16.73;7.88;;;2.60;99.90;;;;;;5053694;28;20036;-89
2023/12/08 00:53:19;;;;;;;13.30;6.93;;;2.60;99.90;;;;;;5070079;28;20446;-89
2023/12/08 00:55:44;;;;;;;12.90;5.90;;;2.60;99.90;;;;;;5053413;28;20137;-89
2023/12/08 00:58:13;;;;;;;14.93;8.02;;;2.60;99.90;;;;;;5052650;28;20040;-89
2023/12/08 01:00:38;;;;;;;19.10;6.68;;;2.60;99.90;;;;;;5053640;28;20036;-89
2023/12/08 01:03:04;;;;;;;16.42;8.02;;;2.60;99.90;;;;;;5053211;28;20512;-89
2023/12/08 01:05:30;;;;;;;17.15;8.13;;;2.60;99.90;;;;;;5053359;28;20041;-89
2023/12/08 01:07:55;;;;;;;15.88;8.35;;;2.50;99.90;;;;;;5070027;28;20039;-89
2023/12/08 01:10:21;;;;;;;15.57;8.18;;;2.60;99.90;;;;;;5052931;28;20416;-89
2023/12/08 01:12:46;;;;;;;14.23;6.70;;;2.60;99.90;;;;;;5052827;28;20036;-89
2023/12/08 01:15:12;;;;;;;15.20;7.80;;;2.60;99.90;;;;;;5053415;28;20033;-89
2023/12/08 01:17:38;;;;;;;15.77;8.25;;;2.60;99.90;;;;;;5053020;28;20045;-89
2023/12/08 01:20:05;;;;;;;14.63;8.30;;;2.60;99.90;;;;;;5053088;28;20518;-88
2023/12/08 01:22:30;;;;;;;15.68;8.15;;;2.60;99.90;;;;;;5069733;28;20048;-89
2023/12/08 01:24:56;;;;;;;15.25;7.47;;;2.50;99.90;;;;;;5053013;28;20408;-89
2023/12/08 01:27:22;;;;;;;15.23;7.90;;;2.60;99.90;;;;;;5052650;28;20174;-90
2023/12/08 01:29:47;;;;;;;14.55;7.00;;;2.60;99.90;;;;;;5052749;28;20119;-90
2023/12/08 01:32:13;;;;;;;15.43;6.00;;;2.60;99.90;;;;;;5052834;28;20051;-90
2023/12/08 01:34:39;;;;;;;18.30;8.93;;;2.50;99.90;;;;;;5052972;28;20033;-90
2023/12/08 01:37:04;;;;;;;18.10;8.45;;;2.60;99.90;;;;;;5055261;28;20557;-87
2023/12/08 01:39:30;;;;;;;14.57;7.32;;;2.60;99.90;;;;;;5058733;28;20044;-89
2023/12/08 01:41:56;;;;;;;14.60;6.25;;;2.60;99.90;;;;;;5071962;28;20086;-88
2023/12/08 01:44:21;;;;;;;13.73;6.65;;;2.60;99.90;;;;;;5062578;28;20640;-90
2023/12/08 01:46:48;;;;;;;15.80;8.07;;;2.60;99.90;;;;;;5069627;28;20047;-89
2023/12/08 01:49:15;;;;;;;15.27;7.65;;;2.60;99.90;;;;;;5053054;28;20052;-88
2023/12/08 01:51:42;;;;;;;17.00;8.02;;;2.60;99.90;;;;;;5044494;28;20040;-90
2023/12/08 01:54:08;;;;;;;13.80;6.80;;;2.60;99.90;;;;;;5061292;28;20035;-89
2023/12/08 01:56:34;;;;;;;16.45;7.50;;;2.60;99.90;;;;;;5052705;28;20119;-89
2023/12/08 01:58:59;;;;;;;19.63;7.50;;;2.60;99.90;;;;;;5052775;28;20571;-90
2023/12/08 02:01:26;;;;;;;14.45;6.00;;;2.60;99.90;;;;;;5069543;28;20045;-90
2023/12/08 02:03:51;;;;;;;11.57;5.28;;;2.60;99.90;;;;;;5052340;28;20051;-90
2023/12/08 02:06:18;;;;;;;13.75;6.57;;;2.60;99.90;;;;;;5052909;28;20037;-89
2023/12/08 02:08:46;;;;;;;16.90;8.18;;;2.60;99.90;;;;;;5052468;28;20040;-89
2023/12/08 02:11:13;;;;;;;16.52;8.02;;;2.60;99.90;;;;;;5071899;28;20504;-89
2023/12/08 02:13:42;;;;;;;16.55;7.45;;;2.60;99.90;;;;;;5073118;28;20046;-90
2023/12/08 02:16:17;;;;;;;15.45;7.53;;;2.60;99.90;;;;;;5056257;28;20032;-90
2023/12/08 02:18:44;;;;;;;17.60;8.35;;;2.60;99.90;;;;;;5056074;28;20037;-90
2023/12/08 02:21:10;;;;;;;17.92;7.03;;;2.60;99.90;;;;;;5055591;28;20083;-89
2023/12/08 02:23:36;;;;;;;15.02;7.05;;;2.60;99.90;;;;;;5072104;28;20040;-90
2023/12/08 02:26:04;;;;;;;15.48;6.63;;;2.60;99.90;;;;;;5056311;28;20139;-90
2023/12/08 02:28:30;;;;;;;13.27;5.63;;;2.60;99.90;;;;;;5072671;28;20115;-89
2023/12/08 02:30:57;;;;;;;14.68;7.03;;;2.60;99.90;;;;;;5056038;28;20123;-90
2023/12/08 02:33:36;;;;;;;17.35;7.22;;;2.60;99.90;;;;;;5055988;28;20114;-90
2023/12/08 02:36:04;;;;;;;14.55;6.90;;;2.60;99.90;;;;;;5072131;28;20040;-90
2023/12/08 02:38:31;;;;;;;15.25;7.28;;;2.60;99.90;;;;;;5055982;28;20044;-89
2023/12/08 02:40:57;;;;;;;14.38;7.50;;;2.60;99.90;;;;;;5055746;28;20036;-90
2023/12/08 02:43:23;;;;;;;19.73;7.95;;;2.60;99.90;;;;;;5055810;28;20458;-89
2023/12/08 02:45:48;;;;;;;14.35;7.10;;;2.60;99.90;;;;;;5055677;28;20124;-89
2023/12/08 02:48:14;;;;;;;20.55;7.90;;;2.60;99.90;;;;;;5055832;28;20057;-90
2023/12/08 02:50:40;;;;;;;16.85;8.32;;;2.60;99.90;;;;;;5055073;28;20044;-89
2023/12/08 02:53:06;;;;;;;18.45;8.52;;;2.60;99.90;;;;;;5055734;28;20040;-90
2023/12/08 02:55:32;;;;;;;17.35;8.95;;;2.70;99.90;;;;;;5063902;28;20124;-90
2023/12/08 02:57:58;;;;;;;15.70;7.68;;;2.70;99.90;;;;;;5072342;28;20032;-90
2023/12/08 03:00:23;;;;;;;13.25;6.50;;;2.70;99.90;;;;;;5055445;28;20407;-90
2023/12/08 03:02:49;;;;;;;16.02;8.15;;;2.60;99.90;;;;;;5055329;28;20048;-89
2023/12/08 03:05:14;;;;;;;16.40;7.72;;;2.60;99.90;;;;;;5055120;28;20516;-90
2023/12/08 03:07:40;;;;;;;15.20;7.82;;;2.70;99.90;;;;;;5054980;28;20047;-90
2023/12/08 03:10:06;;;;;;;18.13;8.45;;;2.70;99.90;;;;;;5055039;28;20041;-89
2023/12/08 03:12:32;;;;;;;15.95;8.00;;;2.70;99.90;;;;;;5055302;28;20058;-89
2023/12/08 03:14:58;;;;;;;15.35;6.95;;;2.70;99.90;;;;;;5055341;28;20439;-89
2023/12/08 03:17:23;;;;;;;16.33;7.60;;;2.70;99.90;;;;;;5055557;28;20047;-90
2023/12/08 03:19:49;;;;;;;15.85;7.53;;;2.70;99.90;;;;;;5071210;28;20459;-89
2023/12/08 03:22:14;;;;;;;15.57;6.93;;;2.70;99.90;;;;;;5054423;28;20131;-90
2023/12/08 03:24:40;;;;;;;14.85;7.45;;;2.70;99.90;;;;;;5071626;28;20048;-89
2023/12/08 03:27:06;;;;;;;19.10;7.63;;;2.70;99.90;;;;;;5071606;28;20032;-90
2023/12/08 03:29:31;;;;;;;15.93;7.90;;;2.70;99.90;;;;;;5055002;28;20036;-90
2023/12/08 03:31:57;;;;;;;16.95;7.85;;;2.70;99.90;;;;;;5054880;28;20844;-90
2023/12/08 03:34:22;;;;;;;14.43;6.80;;;2.70;99.90;;;;;;5053613;28;20036;-89
2023/12/08 03:36:48;;;;;;;15.95;7.45;;;2.60;99.90;;;;;;5070666;28;20036;-90
2023/12/08 03:39:14;;;;;;;17.42;8.57;;;2.60;99.90;;;;;;5053920;28;20441;-90
2023/12/08 03:41:39;;;;;;;15.60;8.02;;;2.60;99.90;;;;;;5070641;28;20040;-89
2023/12/08 03:44:05;;;;;;;15.68;6.97;;;2.60;99.90;;;;;;5070341;28;20036;-89
2023/12/08 03:46:30;;;;;;;15.35;7.60;;;2.60;99.90;;;;;;5070734;28;20089;-89
2023/12/08 03:48:56;;;;;;;17.73;7.88;;;2.50;99.90;;;;;;5054409;28;20033;-89
2023/12/08 03:51:22;;;;;;;13.68;6.53;;;2.50;99.90;;;;;;5054227;28;20120;-90
2023/12/08 03:53:47;;;;;;;16.88;9.07;;;2.50;99.90;;;;;;5071075;28;20067;-89
2023/12/08 03:56:13;;;;;;;15.35;7.15;;;2.50;99.90;;;;;;5071365;28;20041;-90
2023/12/08 03:58:38;;;;;;;16.67;7.88;;;2.50;99.90;;;;;;5071621;28;20033;-90
2023/12/08 04:01:04;;;;;;;15.00;6.57;;;2.50;99.90;;;;;;5055426;28;20042;-89
2023/12/08 04:03:30;;;;;;;15.73;6.20;;;2.50;99.90;;;;;;5054051;28;20044;-89
2023/12/08 04:05:55;;;;;;;14.10;6.05;;;2.40;99.90;;;;;;5071095;28;20049;-89
2023/12/08 04:08:21;;;;;;;13.68;6.97;;;2.40;99.90;;;;;;5070677;28;20039;-90
2023/12/08 04:10:47;;;;;;;16.25;6.93;;;2.40;99.90;;;;;;5070603;28;20090;-90
2023/12/08 04:13:13;;;;;;;15.55;7.93;;;2.40;99.90;;;;;;5070548;28;20043;-89
2023/12/08 04:15:38;;;;;;;18.67;6.88;;;2.40;99.90;;;;;;5054441;28;20040;-89
2023/12/08 04:18:05;;;;;;;17.30;8.63;;;2.40;99.90;;;;;;5053904;28;20079;-89
2023/12/08 04:20:31;;;;;;;15.68;8.50;;;2.40;99.90;;;;;;5053975;28;20051;-90
2023/12/08 04:22:56;;;;;;;16.48;8.23;;;2.40;99.90;;;;;;5070783;28;20066;-89
2023/12/08 04:25:22;;;;;;;18.13;8.63;;;2.40;99.90;;;;;;5053986;28;20508;-89
2023/12/08 04:27:48;;;;;;;15.65;7.80;;;2.40;99.90;;;;;;5070333;28;20039;-90
2023/12/08 04:30:13;;;;;;;17.38;8.27;;;2.40;99.90;;;;;;5070303;28;20048;-90
2023/12/08 04:32:39;;;;;;;17.33;8.15;;;2.40;99.90;;;;;;5052815;28;20048;-89
2023/12/08 04:35:05;;;;;;;18.30;8.88;;;2.40;99.90;;;;;;5053778;28;20033;-89
2023/12/08 04:37:31;;;;;;;16.63;7.53;;;2.40;99.90;;;;;;5070486;28;20404;-89
2023/12/08 04:39:57;;;;;;;16.02;7.35;;;2.40;99.90;;;;;;5066039;28;20500;-90
2023/12/08 04:42:22;;;;;;;13.23;6.80;;;2.40;99.90;;;;;;5049511;28;20145;-90
2023/12/08 04:44:48;;;;;;;14.43;7.03;;;2.40;99.90;;;;;;5053424;28;20070;-89
2023/12/08 04:47:13;;;;;;;16.30;7.03;;;2.40;99.90;;;;;;5053327;28;20032;-90
2023/12/08 04:49:39;;;;;;;16.92;8.80;;;2.40;99.90;;;;;;5070232;28;20117;-90
2023/12/08 04:52:05;;;;;;;9.93;5.18;;;2.40;99.90;;;;;;5053722;28;20124;-89
2023/12/08 04:54:30;;;;;;;18.60;7.13;;;2.40;99.90;;;;;;5053483;28;20079;-90
2023/12/08 04:56:56;;;;;;;14.68;7.10;;;2.40;99.90;;;;;;5053228;28;20032;-89
2023/12/08 04:59:22;;;;;;;15.60;7.05;;;2.30;99.90;;;;;;5069132;28;20032;-90
2023/12/08 05:01:52;;;;;;;17.73;9.35;;;2.30;99.90;;;;;;5069686;28;20036;-90
2023/12/08 05:04:18;;;;;;;16.20;7.70;;;2.30;99.90;;;;;;5053331;28;20032;-90
2023/12/08 05:06:46;;;;;;;16.55;7.00;;;2.30;99.90;;;;;;5052702;28;20028;-90
2023/12/08 05:09:11;;;;;;;17.65;8.35;;;2.30;99.90;;;;;;5052933;28;20037;-90
2023/12/08 05:11:37;;;;;;;15.02;8.02;;;2.30;99.90;;;;;;5052964;28;20098;-90
2023/12/08 05:14:03;;;;;;;16.30;7.32;;;2.30;99.90;;;;;;5053014;28;20036;-90
2023/12/08 05:16:29;;;;;;;14.70;7.10;;;2.30;99.90;;;;;;5052548;28;20573;-90
2023/12/08 05:18:55;;;;;;;15.48;7.60;;;2.30;99.90;;;;;;5052961;28;20040;-90
2023/12/08 05:21:20;;;;;;;14.80;7.82;;;2.30;99.90;;;;;;5069436;28;20059;-90
2023/12/08 05:23:46;;;;;;;18.42;9.02;;;2.30;99.90;;;;;;5068879;28;20063;-89
2023/12/08 05:26:11;;;;;;;15.95;6.90;;;2.30;99.90;;;;;;5052547;28;20036;-90
2023/12/08 05:28:37;;;;;;;18.70;8.20;;;2.30;99.90;;;;;;5052703;28;20036;-90
2023/12/08 05:31:04;;;;;;;13.50;6.15;;;2.30;99.90;;;;;;5069733;28;20048;-90
2023/12/08 05:33:30;;;;;;;19.63;8.13;;;2.20;99.90;;;;;;5052941;28;20088;-89
2023/12/08 05:35:56;;;;;;;19.55;9.05;;;2.30;99.90;;;;;;5069339;28;20568;-90
2023/12/08 05:38:22;;;;;;;17.70;8.88;;;2.30;99.90;;;;;;5052336;28;20068;-89
2023/12/08 05:40:47;;;;;;;17.15;8.55;;;2.20;99.90;;;;;;5052679;28;20066;-90
2023/12/08 05:43:13;;;;;;;16.23;7.38;;;2.20;99.90;;;;;;5052711;28;20037;-90
2023/12/08 05:45:38;;;;;;;18.30;8.30;;;2.20;99.90;;;;;;5055754;28;20123;-90
2023/12/08 05:48:04;;;;;;;17.10;7.68;;;2.20;99.90;;;;;;5073471;28;20045;-90
2023/12/08 05:50:30;;;;;;;16.70;7.53;;;2.30;99.90;;;;;;5056557;28;20511;-90
2023/12/08 05:52:56;;;;;;;18.52;8.80;;;2.20;99.90;;;;;;5056356;28;20074;-90
2023/12/08 05:55:22;;;;;;;18.85;8.48;;;2.30;99.90;;;;;;5056708;28;20048;-90
2023/12/08 05:57:48;;;;;;;19.33;7.38;;;2.20;99.90;;;;;;5072824;28;20044;-90
2023/12/08 06:00:17;;;;;;;12.27;6.15;;;2.20;99.90;;;;;;5056256;28;20041;-90
2023/12/08 06:02:43;;;;;;;17.65;7.03;;;2.20;99.90;;;;;;5073078;28;20048;-89
2023/12/08 06:05:10;;;;;;;14.88;6.72;;;2.20;99.90;;;;;;5073439;28;20101;-90
2023/12/08 06:07:36;;;;;;;15.60;6.38;;;2.20;99.90;;;;;;5055931;28;20492;-90
2023/12/08 06:10:02;;;;;;;15.43;7.70;;;2.20;99.90;;;;;;5055757;28;20135;-90
2023/12/08 06:12:28;;;;;;;18.00;9.30;;;2.20;99.90;;;;;;5055398;28;20044;-88
2023/12/08 06:14:54;;;;;;;17.20;8.23;;;2.20;99.90;;;;;;5056917;28;20028;-89
2023/12/08 06:17:20;;;;;;;18.85;9.00;;;2.20;99.90;;;;;;5058243;28;20040;-89
2023/12/08 06:19:45;;;;;;;18.70;8.95;;;2.20;99.90;;;;;;5059141;28;20422;-89
2023/12/08 06:22:11;;;;;;;16.90;8.02;;;2.20;99.90;;;;;;5055767;28;20462;-89
2023/12/08 06:24:37;;;;;;;17.98;9.20;;;2.20;99.90;;;;;;5072454;28;20049;-89
2023/12/08 06:27:03;;;;;;;16.80;8.32;;;2.20;99.90;;;;;;5072588;28;20124;-89
2023/12/08 06:29:29;;;;;;;16.38;8.85;;;2.20;99.90;;;;;;5054171;28;20043;-89
2023/12/08 06:31:54;;;;;;;16.02;8.10;;;2.20;99.90;;;;;;5043079;28;20028;-89
2023/12/08 06:34:20;;;;;;;15.98;7.95;;;2.20;99.90;;;;;;5062151;28;20396;-89
2023/12/08 06:36:47;;;;;;;19.77;9.85;;;2.20;99.90;;;;;;5056095;28;20041;-90
2023/12/08 06:39:15;;;;;;;21.23;9.52;;;2.20;99.90;;;;;;5055593;28;20086;-90
2023/12/08 06:41:41;;;;;;;16.83;7.00;;;2.20;99.90;;;;;;5072060;28;20087;-89
2023/12/08 06:44:06;;;;;;;17.85;7.53;;;2.20;99.90;;;;;;5072647;28;20076;-89
2023/12/08 06:46:32;;;;;;;15.45;7.22;;;2.20;99.90;;;;;;5055794;28;20040;-89
2023/12/08 06:48:58;;;;;;;17.67;6.88;;;2.20;99.90;;;;;;5070420;28;20032;-89
2023/12/08 06:51:23;;;;;;;16.05;7.22;;;2.20;99.90;;;;;;5071545;28;20037;-89
2023/12/08 06:53:49;;;;;;;14.60;6.80;;;2.20;99.90;;;;;;5055436;28;20462;-89
2023/12/08 06:56:15;;;;;;;16.92;7.85;;;2.20;99.90;;;;;;5054676;28;20068;-89
2023/12/08 06:58:41;;;;;;;18.25;6.70;;;2.20;99.90;;;;;;5054669;28;20545;-90
2023/12/08 07:01:06;;;;;;;20.05;8.60;;;2.20;99.90;;;;;;5055658;28;20078;-89
2023/12/08 07:03:32;;;;;;;18.33;8.52;;;2.20;99.90;;;;;;5054427;28;20744;-89
2023/12/08 07:05:58;;;;;;;22.13;9.52;;;2.20;99.90;;;;;;5071352;28;20079;-90
2023/12/08 07:08:23;;;;;;;17.58;7.45;;;2.20;99.90;;;;;;5070968;28;20484;-89
2023/12/08 07:10:49;;;;;;;16.05;7.47;;;2.20;99.90;;;;;;5054335;28;20496;-90
2023/12/08 07:13:14;;;;;;;15.90;7.72;;;2.20;99.90;;;;;;5054922;28;20041;-91
2023/12/08 07:15:40;;;;;;;12.98;6.95;;;2.20;99.90;;;;;;5055161;28;20106;-89
2023/12/08 07:18:06;;;;;;;16.02;7.68;;;2.20;99.90;;;;;;5054939;28;20507;-89
2023/12/08 07:20:31;;;;;;;14.88;6.93;;;2.20;99.90;;;;;;5071674;28;20547;-90
2023/12/08 07:22:57;;;;;;;18.63;7.95;;;2.20;99.90;;;;;;5054932;28;20143;-89
2023/12/08 07:25:23;;;;;;;18.63;9.38;;;2.20;99.90;;;;;;5055067;28;20033;-90
2023/12/08 07:27:49;;;;;;;17.45;8.60;;;2.20;99.90;;;;;;5071551;28;20111;-90
2023/12/08 07:30:14;;;;;;;17.17;8.40;;;2.20;99.90;;;;;;5054842;28;20166;-90
2023/12/08 07:32:40;;;;;;;16.77;7.53;;;2.20;99.90;;;;;;5054700;28;20040;-89
2023/12/08 07:35:06;;;;;;;16.98;8.50;;;2.20;99.90;;;;;;5055327;28;20029;-90
2023/12/08 07:37:32;;;;;;;15.40;7.72;;;2.20;99.90;;;;;;5054553;28;20492;-90
2023/12/08 07:39:58;;;;;;;14.35;7.53;;;2.20;99.90;;;;;;5053507;28;20047;-89
2023/12/08 07:42:23;;;;;;;15.10;7.57;;;2.20;99.90;;;;;;5054527;28;20032;-89
2023/12/08 07:44:52;;;;;;;12.15;6.10;;;2.20;99.90;;;;;;5054690;28;20072;-89
2023/12/08 07:47:18;;;;;;;15.77;7.32;;;2.20;99.90;;;;;;5055112;28;20411;-89
2023/12/08 07:49:44;;;;;;;15.95;6.47;;;2.20;99.90;;;;;;5054536;28;20522;-89
2023/12/08 07:52:10;;;;;;;17.75;8.45;;;2.20;99.90;;;;;;5054842;28;20044;-90
2023/12/08 07:54:36;;;;;;;16.15;8.75;;;2.20;99.90;;;;;;5054372;28;20040;-90
2023/12/08 07:57:01;;;;;;;19.80;9.68;;;2.30;99.90;;;;;;5071036;28;20120;-90
2023/12/08 07:59:27;;;;;;;20.67;9.50;;;2.30;99.90;;;;;;5054708;28;20078;-90
2023/12/08 08:01:53;;;;;;;16.45;8.73;;;2.30;99.90;;;;;;5070863;28;20045;-90
2023/12/08 08:04:18;;;;;;;18.80;9.38;;;2.30;99.90;;;;;;5054360;28;20039;-90
2023/12/08 08:06:44;;;;;;;16.67;8.40;;;2.30;99.90;;;;;;5053238;28;20032;-89
2023/12/08 08:09:09;;;;;;;17.15;7.28;;;2.30;99.90;;;;;;5069708;28;20492;-90
2023/12/08 08:11:35;;;;;;;17.45;8.32;;;2.30;99.90;;;;;;5053666;28;20072;-90
2023/12/08 08:14:01;;;;;;;17.58;8.10;;;2.30;99.90;;;;;;5070858;28;20097;-89
2023/12/08 08:16:26;;;;;;;15.88;7.35;;;2.30;99.90;;;;;;5053786;28;20495;-89
2023/12/08 08:18:52;;;;;;;15.80;6.47;;;2.30;99.90;;;;;;5054002;28;20040;-89
2023/12/08 08:21:18;;;;;;;15.80;7.18;;;2.30;99.90;;;;;;5070566;28;20128;-89
2023/12/08 08:23:43;;;;;;;13.38;5.07;;;2.30;99.90;;;;;;5053670;28;20040;-89
2023/12/08 08:26:09;;;;;;;18.05;9.00;;;2.30;99.90;;;;;;5053900;28;20067;-90
2023/12/08 08:28:35;;;;;;;18.48;7.63;;;2.30;99.90;;;;;;5054087;28;20028;-89
2023/12/08 08:31:01;;;;;;;15.95;7.05;;;2.30;99.90;;;;;;5054285;28;20040;-89
2023/12/08 08:33:26;;;;;;;19.10;6.97;;;2.40;99.90;;;;;;5056935;28;20111;-87
2023/12/08 08:35:52;;;;;;;13.38;6.28;;;2.30;99.90;;;;;;5074191;28;20040;-88
2023/12/08 08:38:17;;;;;;;16.15;7.40;;;2.30;99.90;;;;;;5064677;28;20075;-88
2023/12/08 08:40:43;;;;;;;14.88;7.47;;;2.30;99.90;;;;;;5050876;28;20048;-89
2023/12/08 08:43:09;;;;;;;16.98;8.25;;;2.40;99.90;;;;;;5070520;28;20041;-88
2023/12/08 08:45:34;;;;;;;17.88;7.88;;;2.40;99.90;;;;;;5062509;28;20414;-89
2023/12/08 08:48:00;;;;;;;14.85;7.25;;;2.40;99.90;;;;;;5070579;28;20119;-89
2023/12/08 08:50:26;;;;;;;16.88;8.52;;;2.40;99.90;;;;;;5052870;28;20127;-89
2023/12/08 08:52:52;;;;;;;19.17;8.63;;;2.40;99.90;;;;;;5069057;28;20037;-89
2023/12/08 08:55:17;;;;;;;16.27;7.45;;;2.40;99.90;;;;;;5070318;28;20051;-89
2023/12/08 08:57:44;;;;;;;17.10;7.97;;;2.40;99.90;;;;;;5053854;28;20036;-89
2023/12/08 09:00:12;;;;;;;15.20;7.40;;;2.40;99.90;;;;;;5053328;28;20044;-90
2023/12/08 09:02:38;;;;;;;18.75;9.18;;;2.40;99.90;;;;;;5070249;28;20139;-89
2023/12/08 09:05:05;;;;;;;15.68;7.55;;;2.40;99.90;;;;;;5053065;28;20047;-89
2023/12/08 09:07:30;;;;;;;17.55;8.68;;;2.40;99.90;;;;;;5069512;28;20064;-89
2023/12/08 09:09:57;;;;;;;16.80;8.27;;;2.40;99.90;;;;;;5053128;28;20079;-89
2023/12/08 09:12:22;;;;;;;17.33;7.43;;;2.40;99.90;;;;;;5053473;28;20044;-89
2023/12/08 09:14:48;;;;;;;15.55;7.55;;;2.40;99.90;;;;;;5053441;28;20029;-89
2023/12/08 09:17:13;;;;;;;19.33;8.38;;;2.40;99.90;;;;;;5053261;28;20047;-90
2023/12/08 09:19:39;;;;;;;14.00;6.95;;;2.40;99.90;;;;;;5052892;28;20098;-88
2023/12/08 09:22:05;;;;;;;19.08;9.15;;;2.40;99.90;;;;;;5053015;28;20047;-88
2023/12/08 09:24:31;;;;;;;15.63;7.25;;;2.40;99.90;;;;;;5050080;28;20509;-87
2023/12/08 09:26:56;;;;;;;14.35;6.75;;;2.40;99.90;;;;;;5039610;28;20396;-88
2023/12/08 09:29:23;;;;;;;15.43;6.75;;;2.40;99.90;;;;;;5055242;28;20120;-87
2023/12/08 09:31:48;;;;;;;16.30;6.90;;;2.40;99.90;;;;;;5040715;28;20135;-88
2023/12/08 09:34:16;;;;;;;15.40;6.43;;;2.50;99.90;;;;;;5083454;28;20040;-88
2023/12/08 09:36:42;;;;;;;14.75;7.63;;;2.50;99.90;;;;;;5057383;28;20032;-88
2023/12/08 09:39:08;;;;;;;18.25;7.82;;;2.50;99.90;;;;;;5041010;28;20119;-88
2023/12/08 09:41:37;;;;;;;19.23;9.10;;;2.50;99.90;;;;;;5052752;28;20491;-87
2023/12/08 09:44:11;;;;;;;19.67;9.43;;;2.50;99.90;;;;;;5052891;28;20037;-87
2023/12/08 09:46:39;;;;;;;19.17;9.30;;;2.50;99.90;;;;;;5053163;28;20058;-87
2023/12/08 09:49:11;;;;;;;19.73;9.52;;;2.50;99.90;;;;;;5052661;28;20047;-86
2023/12/08 09:51:38;;;;;;;17.45;9.02;;;2.50;99.90;;;;;;5053038;28;20040;-87
2023/12/08 09:54:04;;;;;;;18.33;8.77;;;2.50;99.90;;;;;;5070007;28;20487;-88
2023/12/08 09:56:31;;;;;;;22.05;10.98;;;2.50;99.90;;;;;;5052648;28;20041;-89
2023/12/08 09:58:57;;;;;;;19.85;9.38;;;2.50;99.90;;;;;;5069803;28;20380;-89
2023/12/08 10:01:23;;;;;;;15.50;8.07;;;2.50;99.90;;;;;;5069009;28;20052;-89
2023/12/08 10:03:48;;;;;;;19.80;9.68;;;2.50;99.90;;;;;;5052326;28;20044;-89
2023/12/08 10:06:15;;;;;;;16.20;8.25;;;2.50;99.90;;;;;;5052567;28;20040;-89
2023/12/08 10:08:41;;;;;;;17.63;9.15;;;2.60;99.90;;;;;;5052582;28;20033;-89
2023/12/08 10:11:06;;;;;;;20.25;9.82;;;2.50;99.90;;;;;;5052587;28;20064;-89
2023/12/08 10:13:33;;;;;;;19.42;9.80;;;2.60;99.90;;;;;;5069380;28;20082;-89
2023/12/08 10:15:59;;;;;;;15.80;8.30;;;2.60;99.90;;;;;;5069526;28;20032;-89
2023/12/08 10:18:27;;;;;;;16.00;8.25;;;2.60;99.90;;;;;;5069365;28;20040;-89
2023/12/08 10:21:12;;;;;;;19.90;9.63;;;2.60;99.90;;;;;;5048709;28;20051;-89
2023/12/08 10:23:37;;;;;;;20.70;10.43;;;2.60;99.90;;;;;;5040980;28;20484;-90
2023/12/08 10:26:04;;;;;;;16.45;9.02;;;2.60;99.90;;;;;;5039467;28;20041;-88
2023/12/08 10:28:33;;;;;;;19.58;8.73;;;2.60;99.90;;;;;;5055912;28;20052;-89
2023/12/08 10:30:59;;;;;;;24.60;9.10;;;2.70;99.90;;;;;;5038556;28;20044;-89
2023/12/08 10:33:25;;;;;;;16.85;8.57;;;2.70;99.90;;;;;;5072442;28;20033;-89
2023/12/08 10:35:52;;;;;;;20.23;7.97;;;2.60;99.90;;;;;;5072524;28;20036;-89
2023/12/08 10:38:21;;;;;;;19.27;8.15;;;2.70;99.90;;;;;;5055813;28;20047;-89
2023/12/08 10:40:50;;;;;;;20.10;9.23;;;2.70;99.90;;;;;;5072220;28;20048;-88
2023/12/08 10:43:23;;;;;;;21.52;11.15;;;2.70;99.90;;;;;;5055897;28;20115;-89
2023/12/08 10:45:52;;;;;;;19.83;9.80;;;2.70;99.90;;;;;;5072950;28;20490;-89
2023/12/08 10:48:20;;;;;;;17.83;9.88;;;2.70;99.90;;;;;;5055241;28;20462;-89
2023/12/08 10:50:50;;;;;;;18.52;9.35;;;2.70;99.90;;;;;;5055562;28;20572;-89
2023/12/08 10:53:18;;;;;;;26.13;11.02;;;2.70;99.90;;;;;;5050656;28;20055;-89
2023/12/08 10:56:03;;;;;;;24.00;10.80;;;2.70;99.90;;;;;;5065790;28;20043;-89
2023/12/08 10:58:33;;;;;;;19.63;8.50;;;2.80;99.90;;;;;;5068499;28;20530;-88
2023/12/08 11:01:01;;;;;;;15.98;8.73;;;2.70;99.90;;;;;;5060916;28;20056;-89
2023/12/08 11:03:32;;;;;;;18.33;9.98;;;2.80;99.90;;;;;;5041513;28;20593;-89
2023/12/08 11:06:14;;;;;;;19.50;9.23;;;2.80;99.90;;;;;;5058813;28;20036;-89
2023/12/08 11:08:54;;;;;;;24.25;10.05;;;2.80;99.90;;;;;;5042856;28;20500;-89
2023/12/08 11:11:24;;;;;;;21.67;9.90;;;2.90;99.90;;;;;;5042711;28;20033;-88
2023/12/08 11:13:58;;;;;;;22.60;10.52;;;2.90;99.90;;;;;;5068940;28;20449;-89
2023/12/08 11:16:26;;;;;;;18.77;9.07;;;2.80;99.90;;;;;;5041189;28;20076;-89
2023/12/08 11:18:54;;;;;;;22.20;10.15;;;2.90;99.90;;;;;;5044308;28;20119;-89
2023/12/08 11:21:21;;;;;;;23.00;11.10;;;2.90;99.90;;;;;;5058022;28;20512;-89
2023/12/08 11:23:47;;;;;;;31.13;10.05;;;2.90;99.90;;;;;;5042308;28;20047;-88
2023/12/08 11:26:35;;;;;;;22.25;11.45;;;2.90;99.90;;;;;;5040693;28;20036;-88
2023/12/08 11:29:20;;;;;;;24.63;12.05;;;2.90;99.90;;;;;;5047781;28;20507;-88
2023/12/08 11:32:09;;;;;;;26.23;11.55;;;3.00;99.90;;;;;;5052879;28;20041;-88
2023/12/08 11:34:56;;;;;;;26.35;11.77;;;3.00;99.90;;;;;;5065219;28;20516;-89
2023/12/08 11:37:23;;;;;;;21.25;10.05;;;3.00;99.90;;;;;;5072121;28;20051;-89
2023/12/08 11:39:49;;;;;;;20.23;10.02;;;3.00;99.90;;;;;;5054861;28;20042;-88
2023/12/08 11:42:20;;;;;;;27.80;13.27;;;3.00;99.90;;;;;;5071574;28;20642;-88
2023/12/08 11:44:47;;;;;;;32.55;14.30;;;3.00;99.90;;;;;;5054893;28;20499;-89
2023/12/08 11:47:15;;;;;;;23.95;11.40;;;3.00;99.90;;;;;;5055000;28;20037;-89
2023/12/08 11:49:47;;;;;;;28.35;11.60;;;3.00;99.90;;;;;;5054214;28;20043;-89
2023/12/08 11:52:18;;;;;;;25.65;10.43;;;3.10;99.90;;;;;;5071017;28;20076;-89
2023/12/08 11:55:12;;;;;;;24.58;9.70;;;3.10;99.90;;;;;;5054433;28;20510;-90
2023/12/08 11:57:53;;;;;;;27.90;11.15;;;3.10;99.90;;;;;;5054591;28;20047;-88
2023/12/08 12:00:21;;;;;;;26.90;11.25;;;3.10;99.90;;;;;;5052493;28;20511;-89
2023/12/08 12:02:48;;;;;;;31.17;13.40;;;3.10;99.90;;;;;;5039736;28;20037;-88
2023/12/08 12:05:15;;;;;;;33.97;11.75;;;3.10;99.90;;;;;;5045536;28;20051;-89
2023/12/08 12:07:45;;;;;;;22.33;11.45;;;3.20;99.90;;;;;;5069733;28;20130;-88
2023/12/08 12:10:12;;;;;;;28.52;13.65;;;3.20;99.90;;;;;;5071038;28;20083;-88
2023/12/08 12:12:45;;;;;;;27.70;11.63;;;3.20;99.90;;;;;;5054234;28;20089;-89
2023/12/08 12:15:11;;;;;;;28.77;11.95;;;3.20;99.90;;;;;;5053169;28;20044;-89
2023/12/08 12:17:38;;;;;;;32.75;13.10;;;3.20;99.90;;;;;;5054148;28;20036;-88
2023/12/08 12:20:04;;;;;;;32.50;12.70;;;3.20;99.90;;;;;;5054010;28;20114;-89
2023/12/08 12:22:30;;;;;;;31.40;14.05;;;3.20;99.90;;;;;;5054157;28;20032;-89
2023/12/08 12:24:55;;;;;;;31.73;13.65;;;3.20;99.90;;;;;;5054181;28;20554;-89
2023/12/08 12:27:21;;;;;;;32.80;14.95;;;3.30;99.90;;;;;;5069350;28;20044;-89
2023/12/08 12:29:48;;;;;;;28.80;13.20;;;3.30;99.90;;;;;;5040182;28;20396;-90
2023/12/08 12:32:14;;;;;;;24.17;11.57;;;3.30;99.90;;;;;;5065292;28;20029;-89
2023/12/08 12:34:40;;;;;;;29.00;12.07;;;3.30;99.90;;;;;;5057769;28;20044;-89
2023/12/08 12:37:07;;;;;;;29.35;11.50;;;3.30;99.90;;;;;;5059053;28;20494;-89
2023/12/08 12:39:34;;;;;;;34.17;14.10;;;3.30;99.90;;;;;;5040663;28;20041;-89
2023/12/08 12:42:06;;;;;;;35.58;14.70;;;3.40;99.90;;;;;;5039055;28;20041;-89
2023/12/08 12:44:42;;;;;;;29.48;13.13;;;3.40;99.90;;;;;;5053785;28;20052;-89